Station Historical Data
Daily Summary for November 14, 2017 Units:  Metric    English   Both
« Previous Day
Next Day »
Daily Weekly Monthly Yearly Custom
  High: Low: Average:
Temperature: 14.7 °C 3.9 °C 8.4 °C
Dew Point: 7.7 °C 2.7 °C 5.6 °C
Humidity: 94% 61% 83%
Wind Speed: 7.4km/h 0km/h 1.3km/h
Wind Gust: 7.4km/h - -
Wind- - West
Pressure: 1027.7 hPa 1022.9 hPa -
Precipitation: 0 mm    
Historical Graphs
 
 
Tabular Data for November 14, 2017
Time Temperature Dew Point Pressure Wind Wind Speed Wind Gust Humidity Rainfall Rate (Hourly) solar Conditions
00:02 5.8 °C 4.2 °C 1026.3 hPa Calm     89% 0 mm WeatherDisplay:10.37 W/m2 CLR
00:07 5.7 °C 4 °C 1026.3 hPa Calm     89% 0 mm WeatherDisplay:10.37 W/m2 CLR
00:17 5.5 °C 4 °C 1026.3 hPa Calm     90% 0 mm WeatherDisplay:10.37 W/m2 CLR
00:22 5.4 °C 3.9 °C 1026.3 hPa Calm     90% 0 mm WeatherDisplay:10.37 W/m2 CLR
00:27 5.3 °C 3.8 °C 1026.3 hPa Calm     90% 0 mm WeatherDisplay:10.37 W/m2 CLR
00:32 5.2 °C 3.7 °C 1026.3 hPa Calm     90% 0 mm WeatherDisplay:10.37 W/m2 CLR
00:38 5.2 °C 3.7 °C 1026.3 hPa Calm     90% 0 mm WeatherDisplay:10.37 W/m2 CLR
00:43 5.1 °C 3.6 °C 1026.3 hPa Calm     90% 0 mm WeatherDisplay:10.37 W/m2 CLR
00:48 5 °C 3.7 °C 1026.3 hPa Calm     91% 0 mm WeatherDisplay:10.37 W/m2 CLR
00:53 5 °C 3.7 °C 1026.3 hPa Calm     91% 0 mm WeatherDisplay:10.37 W/m2 CLR
00:58 4.9 °C 3.6 °C 1026.3 hPa Calm     91% 0 mm WeatherDisplay:10.37 W/m2 CLR
01:03 4.9 °C 3.6 °C 1026.3 hPa Calm     91% 0 mm WeatherDisplay:10.37 W/m2 CLR
01:08 4.8 °C 3.5 °C 1026.3 hPa Calm     91% 0 mm WeatherDisplay:10.37 W/m2 CLR
01:13 4.8 °C 3.4 °C 1026.3 hPa Calm     91% 0 mm WeatherDisplay:10.37 W/m2 CLR
01:18 4.7 °C 3.4 °C 1026 hPa Calm     91% 0 mm WeatherDisplay:10.37 W/m2 CLR
01:23 4.7 °C 3.3 °C 1026 hPa Calm     91% 0 mm WeatherDisplay:10.37 W/m2 CLR
01:28 4.7 °C 3.3 °C 1026 hPa Calm     91% 0 mm WeatherDisplay:10.37 W/m2 CLR
01:33 4.6 °C 3.3 °C 1026 hPa Calm     91% 0 mm WeatherDisplay:10.37 W/m2 CLR
01:38 4.6 °C 3.2 °C 1026 hPa Calm     91% 0 mm WeatherDisplay:10.37 W/m2 CLR
01:43 4.5 °C 3.2 °C 1026 hPa Calm     91% 0 mm WeatherDisplay:10.37 W/m2 CLR
01:48 4.5 °C 3.2 °C 1026 hPa Calm     91% 0 mm WeatherDisplay:10.37 W/m2 CLR
01:53 4.5 °C 3.3 °C 1026 hPa NE 1.9 km/h   92% 0 mm WeatherDisplay:10.37 W/m2 CLR
01:58 4.4 °C 3.3 °C 1026 hPa NE 1.9 km/h   92% 0 mm WeatherDisplay:10.37 W/m2 CLR
02:03 4.4 °C 3.3 °C 1026 hPa NE 1.9 km/h   92% 0 mm WeatherDisplay:10.37 W/m2 CLR
02:08 4.4 °C 3.3 °C 1026 hPa Calm     92% 0 mm WeatherDisplay:10.37 W/m2 CLR
02:13 4.4 °C 3.2 °C 1026 hPa Calm     92% 0 mm WeatherDisplay:10.37 W/m2 CLR
02:18 4.4 °C 3.2 °C 1026 hPa Calm     92% 0 mm WeatherDisplay:10.37 W/m2 CLR
02:24 4.3 °C 3.2 °C 1026 hPa Calm     92% 0 mm WeatherDisplay:10.37 W/m2 CLR
02:29 4.3 °C 3.2 °C 1026 hPa Calm     92% 0 mm WeatherDisplay:10.37 W/m2 CLR
02:34 4.3 °C 3.1 °C 1026 hPa Calm     92% 0 mm WeatherDisplay:10.37 W/m2 CLR
02:44 4.3 °C 3.1 °C 1026 hPa Calm     92% 0 mm WeatherDisplay:10.37 W/m2 CLR
02:49 4.3 °C 3.1 °C 1026 hPa Calm     92% 0 mm WeatherDisplay:10.37 W/m2 CLR
02:54 4.2 °C 3.1 °C 1026 hPa Calm     92% 0 mm WeatherDisplay:10.37 W/m2 CLR
02:59 4.2 °C 3 °C 1026 hPa Calm     92% 0 mm WeatherDisplay:10.37 W/m2 CLR
03:04 4.2 °C 3 °C 1026 hPa Calm     92% 0 mm WeatherDisplay:10.37 W/m2 CLR
03:09 4.1 °C 2.9 °C 1026 hPa Calm     92% 0 mm WeatherDisplay:10.37 W/m2 CLR
03:14 4.1 °C 2.9 °C 1026 hPa Calm     92% 0 mm WeatherDisplay:10.37 W/m2 CLR
03:19 4.1 °C 2.9 °C 1026 hPa Calm     92% 0 mm WeatherDisplay:10.37 W/m2 CLR
03:24 4 °C 2.8 °C 1026 hPa Calm     92% 0 mm WeatherDisplay:10.37 W/m2 CLR
03:29 3.9 °C 2.8 °C 1026 hPa Calm     92% 0 mm WeatherDisplay:10.37 W/m2 CLR
03:34 3.9 °C 2.7 °C 1026 hPa Calm     92% 0 mm WeatherDisplay:10.37 W/m2 CLR
03:39 3.9 °C 2.8 °C 1026 hPa Calm     92% 0 mm WeatherDisplay:10.37 W/m2 CLR
03:44 4 °C 2.8 °C 1026 hPa Calm     92% 0 mm WeatherDisplay:10.37 W/m2 CLR
03:50 4.1 °C 3 °C 1026 hPa Calm     93% 0 mm WeatherDisplay:10.37 W/m2 CLR
03:55 4.2 °C 3.2 °C 1026 hPa Calm     93% 0 mm WeatherDisplay:10.37 W/m2 FEW
04:00 4.3 °C 3.3 °C 1026 hPa Calm     93% 0 mm WeatherDisplay:10.37 W/m2 FEW
04:01 4.4 °C 3.3 °C 1026 hPa Calm     93% 0 mm WeatherDisplay:10.37 W/m2 FEW
04:06 4.6 °C 3.6 °C 1026 hPa Calm     93% 0 mm WeatherDisplay:10.37 W/m2 SCT
04:20 5.4 °C 4.3 °C 1026.3 hPa Calm     93% 0 mm WeatherDisplay:10.37 W/m2 SCT
04:25 5.7 °C 4.8 °C 1026.3 hPa Calm     94% 0 mm WeatherDisplay:10.37 W/m2 SCT
04:30 5.9 °C 5 °C 1026 hPa Calm     94% 0 mm WeatherDisplay:10.37 W/m2 SCT
04:35 6 °C 5.1 °C 1026 hPa Calm     94% 0 mm WeatherDisplay:10.37 W/m2 SCT
04:40 6.1 °C 5.2 °C 1026.3 hPa Calm     94% 0 mm WeatherDisplay:10.37 W/m2 SCT
04:45 6.1 °C 5.2 °C 1026 hPa Calm     94% 0 mm WeatherDisplay:10.37 W/m2 SCT
04:50 6.1 °C 5 °C 1026.3 hPa Calm     93% 0 mm WeatherDisplay:10.37 W/m2 SCT
04:55 6.1 °C 5 °C 1026 hPa Calm     93% 0 mm WeatherDisplay:10.37 W/m2 SCT
05:00 6.1 °C 5 °C 1026 hPa Calm     93% 0 mm WeatherDisplay:10.37 W/m2 SCT
05:05 6.1 °C 5 °C 1026.3 hPa Calm     93% 0 mm WeatherDisplay:10.37 W/m2 CLR
05:10 6 °C 4.9 °C 1026.3 hPa Calm     93% 0 mm WeatherDisplay:10.37 W/m2 CLR
05:15 6 °C 4.9 °C 1026.3 hPa Calm     93% 0 mm WeatherDisplay:10.37 W/m2 CLR
05:20 5.9 °C 4.9 °C 1026.3 hPa Calm     93% 0 mm WeatherDisplay:10.37 W/m2 CLR
05:25 5.9 °C 4.9 °C 1026.3 hPa Calm     93% 0 mm WeatherDisplay:10.37 W/m2 CLR
05:30 5.9 °C 4.8 °C 1026 hPa Calm     93% 0 mm WeatherDisplay:10.37 W/m2 CLR
05:35 5.9 °C 4.8 °C 1026 hPa Calm     93% 0 mm WeatherDisplay:10.37 W/m2 FEW
05:40 5.9 °C 4.8 °C 1026.3 hPa Calm     93% 0 mm WeatherDisplay:10.37 W/m2 FEW
05:45 5.9 °C 4.9 °C 1026.3 hPa Calm     93% 0 mm WeatherDisplay:10.37 W/m2 FEW
05:50 5.9 °C 4.8 °C 1026 hPa Calm     93% 0 mm WeatherDisplay:10.37 W/m2 FEW
05:55 5.9 °C 4.8 °C 1026 hPa Calm     93% 0 mm WeatherDisplay:10.37 W/m2 FEW
06:00 5.8 °C 4.8 °C 1026 hPa Calm     93% 0 mm WeatherDisplay:10.37 W/m2 FEW
06:05 5.8 °C 4.7 °C 1026 hPa Calm     93% 0 mm WeatherDisplay:10.37 W/m2 SCT
06:11 5.8 °C 4.7 °C 1026 hPa WNW 1.9 km/h 1.9 km/h 93% 0 mm WeatherDisplay:10.37 W/m2 SCT
06:16 5.7 °C 4.7 °C 1026.3 hPa West 1.9 km/h   93% 0 mm WeatherDisplay:10.37 W/m2 SCT
06:21 5.7 °C 4.6 °C 1026 hPa West 1.9 km/h   93% 0 mm WeatherDisplay:10.37 W/m2 SCT
06:31 5.7 °C 4.6 °C 1026.3 hPa Calm     93% 0 mm WeatherDisplay:10.37 W/m2 SCT
06:36 5.7 °C 4.6 °C 1026.3 hPa Calm     93% 0 mm WeatherDisplay:10.37 W/m2 SCT
06:41 5.8 °C 4.8 °C 1026.6 hPa West 1.9 km/h   93% 0 mm WeatherDisplay:10.37 W/m2 SCT
06:46 5.8 °C 4.8 °C 1026.6 hPa West 1.9 km/h   93% 0 mm WeatherDisplay:10.37 W/m2 SCT
06:51 5.9 °C 4.8 °C 1026.6 hPa Calm     93% 0 mm WeatherDisplay:10.37 W/m2 SCT
06:56 5.8 °C 4.8 °C 1026.6 hPa Calm     93% 0 mm WeatherDisplay:10.37 W/m2 SCT
07:01 5.8 °C 4.8 °C 1026.6 hPa Calm     93% 0 mm WeatherDisplay:10.37 W/m2 BKN
07:06 5.8 °C 4.7 °C 1026.6 hPa Calm     93% 0 mm WeatherDisplay:10.37 W/m2 BKN
07:11 5.8 °C 4.7 °C 1026.6 hPa Calm     93% 0 mm WeatherDisplay:10.37 W/m2 BKN
07:16 5.8 °C 4.7 °C 1026.6 hPa Calm     93% 0 mm WeatherDisplay:10.37 W/m2 BKN
07:21 5.8 °C 4.8 °C 1027 hPa Calm     93% 0 mm WeatherDisplay:10.37 W/m2 BKN
07:26 5.8 °C 4.8 °C 1027 hPa Calm     93% 0 mm WeatherDisplay:10.37 W/m2 BKN
07:31 5.8 °C 4.7 °C 1027 hPa Calm     93% 0 mm WeatherDisplay:10.37 W/m2 BKN
07:42 5.9 °C 4.8 °C 1027.3 hPa Calm     93% 0 mm WeatherDisplay:10.37 W/m2 BKN
07:47 5.9 °C 4.8 °C 1027.3 hPa Calm     93% 0 mm WeatherDisplay:10.37 W/m2 BKN
07:52 5.9 °C 4.9 °C 1027.3 hPa Calm     93% 0 mm WeatherDisplay:10.37 W/m2 BKN
07:57 6 °C 4.9 °C 1027.3 hPa Calm     93% 0 mm WeatherDisplay:10.37 W/m2 BKN
08:02 6.1 °C 5 °C 1027.3 hPa Calm     93% 0 mm WeatherDisplay:10.37 W/m2 BKN
08:07 6.1 °C 5.1 °C 1027.3 hPa Calm     93% 0 mm WeatherDisplay:10.37 W/m2 BKN
08:12 6.2 °C 5.2 °C 1027.3 hPa Calm     93% 0 mm WeatherDisplay:10.37 W/m2 BKN
08:17 6.3 °C 5.3 °C 1027.3 hPa Calm     93% 0 mm WeatherDisplay:10.37 W/m2 BKN
08:22 6.4 °C 5.3 °C 1027.7 hPa West 1.9 km/h   93% 0 mm WeatherDisplay:10.37 W/m2 BKN
08:27 6.5 °C 5.4 °C 1027.7 hPa West 1.9 km/h   93% 0 mm WeatherDisplay:10.37 W/m2 BKN
08:32 6.6 °C 5.6 °C 1027.7 hPa Calm     93% 0 mm WeatherDisplay:10.37 W/m2 BKN
08:37 6.7 °C 5.6 °C 1027.7 hPa West 1.9 km/h   93% 0 mm WeatherDisplay:10.37 W/m2 BKN
08:42 6.8 °C 5.8 °C 1027.7 hPa WNW 1.9 km/h   93% 0 mm WeatherDisplay:10.37 W/m2 BKN
08:47 6.9 °C 5.7 °C 1027.7 hPa WNW 1.9 km/h   92% 0 mm WeatherDisplay:10.37 W/m2 BKN
08:52 7 °C 5.8 °C 1027.7 hPa WNW 1.9 km/h   92% 0 mm WeatherDisplay:10.37 W/m2 BKN
08:57 7.1 °C 5.7 °C 1027.7 hPa WNW 1.9 km/h   91% 0 mm WeatherDisplay:10.37 W/m2 BKN
09:02 7.2 °C 5.6 °C 1027.7 hPa West 1.9 km/h   90% 0 mm WeatherDisplay:10.37 W/m2 BKN
09:07 7.3 °C 5.7 °C 1027.7 hPa West 1.9 km/h   90% 0 mm WeatherDisplay:10.37 W/m2 BKN
09:13 7.3 °C 5.7 °C 1027.3 hPa West 3.7 km/h 3.7 km/h 89% 0 mm WeatherDisplay:10.37 W/m2 BKN
09:18 7.5 °C 5.8 °C 1027.7 hPa West 3.7 km/h   89% 0 mm WeatherDisplay:10.37 W/m2 BKN
09:23 7.6 °C 5.9 °C 1027.7 hPa West 3.7 km/h 3.7 km/h 89% 0 mm WeatherDisplay:10.37 W/m2 BKN
09:28 7.8 °C 5.9 °C 1027.7 hPa West 3.7 km/h 3.7 km/h 88% 0 mm WeatherDisplay:10.37 W/m2 BKN
09:33 8 °C 5.9 °C 1027.7 hPa West 3.7 km/h 3.7 km/h 87% 0 mm WeatherDisplay:10.37 W/m2 BKN
09:38 8.1 °C 5.9 °C 1027.3 hPa WNW 3.7 km/h 3.7 km/h 86% 0 mm WeatherDisplay:10.37 W/m2 BKN
09:43 8.2 °C 5.8 °C 1027.7 hPa West 7.4 km/h   85% 0 mm WeatherDisplay:10.37 W/m2 BKN
09:48 8.3 °C 5.9 °C 1027.7 hPa West 7.4 km/h   85% 0 mm WeatherDisplay:10.37 W/m2 BKN
09:53 8.3 °C 5.8 °C 1027.7 hPa West 5.6 km/h 5.6 km/h 84% 0 mm WeatherDisplay:10.37 W/m2 BKN
09:58 8.4 °C 5.8 °C 1027.7 hPa West 5.6 km/h   84% 0 mm WeatherDisplay:10.37 W/m2 BKN
10:03 8.6 °C 5.8 °C 1027.7 hPa West 5.6 km/h 5.6 km/h 83% 0 mm WeatherDisplay:10.37 W/m2 BKN
10:08 9 °C 6.3 °C 1027.7 hPa West 5.6 km/h 5.6 km/h 83% 0 mm WeatherDisplay:10.37 W/m2 BKN
10:13 9.6 °C 6.5 °C 1027.7 hPa West 5.6 km/h 5.6 km/h 81% 0 mm WeatherDisplay:10.37 W/m2 BKN
10:14 9.7 °C 6.6 °C 1027.7 hPa West 5.6 km/h 5.6 km/h 81% 0 mm WeatherDisplay:10.37 W/m2 BKN
10:19 10.1 °C 6.6 °C 1027.7 hPa NW 3.7 km/h   79% 0 mm WeatherDisplay:10.37 W/m2 BKN
10:24 10.5 °C 6.6 °C 1027.7 hPa NW 3.7 km/h 3.7 km/h 77% 0 mm WeatherDisplay:10.37 W/m2 BKN
10:29 10.4 °C 6 °C 1027.7 hPa WNW 3.7 km/h 3.7 km/h 74% 0 mm WeatherDisplay:10.37 W/m2 BKN
10:34 10.4 °C 6.2 °C 1027.7 hPa WNW 3.7 km/h 3.7 km/h 75% 0 mm WeatherDisplay:10.37 W/m2 BKN
10:39 10.6 °C 6.5 °C 1027.7 hPa WNW 5.6 km/h 5.6 km/h 76% 0 mm WeatherDisplay:10.37 W/m2 BKN
10:44 11 °C 6.6 °C 1027.7 hPa WNW 5.6 km/h 5.6 km/h 74% 0 mm WeatherDisplay:10.37 W/m2 BKN
10:49 11.2 °C 6.3 °C 1027.7 hPa WNW 3.7 km/h 3.7 km/h 72% 0 mm WeatherDisplay:10.37 W/m2 BKN
10:54 11.2 °C 6.3 °C 1027.7 hPa WNW 3.7 km/h 3.7 km/h 72% 0 mm WeatherDisplay:10.37 W/m2 BKN
10:59 10.9 °C 6.3 °C 1027.7 hPa West 5.6 km/h 5.6 km/h 73% 0 mm WeatherDisplay:10.37 W/m2 BKN
11:04 10.9 °C 6.4 °C 1027.7 hPa West 5.6 km/h 5.6 km/h 74% 0 mm WeatherDisplay:10.37 W/m2 SCT
11:09 11.1 °C 6.4 °C 1027.3 hPa WNW 1.9 km/h   73% 0 mm WeatherDisplay:10.37 W/m2 SCT
11:14 11.2 °C 6.3 °C 1027.3 hPa WNW 3.7 km/h 3.7 km/h 72% 0 mm WeatherDisplay:10.37 W/m2 SCT
11:20 11.3 °C 6.6 °C 1027.3 hPa NW 3.7 km/h   73% 0 mm WeatherDisplay:10.37 W/m2 SCT
11:25 11.6 °C 6.9 °C 1027.3 hPa Calm   3.2 km/h 73% 0 mm WeatherDisplay:10.37 W/m2 SCT
11:30 11.7 °C 6.8 °C 1027.3 hPa WSW 3.7 km/h 3.7 km/h 72% 0 mm WeatherDisplay:10.37 W/m2 SCT
11:35 11.8 °C 7.3 °C 1027 hPa WNW 3.7 km/h 3.7 km/h 74% 0 mm WeatherDisplay:10.37 W/m2 SCT
11:40 11.9 °C 6.8 °C 1027 hPa WNW 3.7 km/h 3.7 km/h 71% 0 mm WeatherDisplay:10.37 W/m2 SCT
11:45 12 °C 6.9 °C 1027 hPa WNW 3.7 km/h   71% 0 mm WeatherDisplay:10.37 W/m2 SCT
11:50 12.1 °C 6.8 °C 1026.6 hPa NW 3.7 km/h 3.7 km/h 70% 0 mm WeatherDisplay:10.37 W/m2 SCT
11:55 12.2 °C 7.1 °C 1026.6 hPa WNW 1.9 km/h 1.9 km/h 71% 0 mm WeatherDisplay:10.37 W/m2 SCT
12:00 12.4 °C 7.1 °C 1026.3 hPa NW 1.9 km/h 1.9 km/h 70% 0 mm WeatherDisplay:10.37 W/m2 SCT
12:05 12.6 °C 7.2 °C 1026.3 hPa West 5.6 km/h 5.6 km/h 70% 0 mm WeatherDisplay:10.37 W/m2 FEW
12:10 12.5 °C 6.9 °C 1026.3 hPa West 5.6 km/h 5.6 km/h 69% 0 mm WeatherDisplay:10.37 W/m2 FEW
12:15 12.7 °C 7.2 °C 1026 hPa WNW 3.7 km/h 3.7 km/h 69% 0 mm WeatherDisplay:10.37 W/m2 FEW
12:25 12.9 °C 7.2 °C 1025.6 hPa WNW 1.9 km/h 1.9 km/h 68% 0 mm WeatherDisplay:10.37 W/m2 FEW
12:30 13.1 °C 7.1 °C 1025.6 hPa WNW 1.9 km/h   67% 0 mm WeatherDisplay:10.37 W/m2 FEW
12:35 13.4 °C 7.4 °C 1025.6 hPa WNW 1.9 km/h 1.9 km/h 67% 0 mm WeatherDisplay:10.37 W/m2 FEW
12:40 13.6 °C 7.1 °C 1025.6 hPa West 3.7 km/h 3.7 km/h 65% 0 mm WeatherDisplay:10.37 W/m2 FEW
12:45 13.6 °C 7.1 °C 1025.6 hPa NW 3.7 km/h 3.7 km/h 65% 0 mm WeatherDisplay:10.37 W/m2 FEW
12:50 13.6 °C 6.9 °C 1025.3 hPa WNW 5.6 km/h 5.6 km/h 64% 0 mm WeatherDisplay:10.37 W/m2 FEW
12:55 13.6 °C 6.9 °C 1025.3 hPa WNW 5.6 km/h   64% 0 mm WeatherDisplay:10.37 W/m2 FEW
13:00 13.5 °C 7.1 °C 1025.3 hPa West 5.6 km/h 5.6 km/h 65% 0 mm WeatherDisplay:10.37 W/m2 FEW
13:05 13.6 °C 7.6 °C 1024.9 hPa West 3.7 km/h 3.7 km/h 67% 0 mm WeatherDisplay:10.37 W/m2 FEW
13:10 13.9 °C 7.7 °C 1024.9 hPa WNW 3.7 km/h   66% 0 mm WeatherDisplay:10.37 W/m2 FEW
13:15 14.2 °C 7.1 °C 1024.9 hPa NW 3.7 km/h 3.7 km/h 62% 0 mm WeatherDisplay:10.37 W/m2 FEW
13:20 14.3 °C 7.1 °C 1024.9 hPa NW 5.6 km/h 5.6 km/h 62% 0 mm WeatherDisplay:10.37 W/m2 FEW
13:25 14.3 °C 7.1 °C 1024.6 hPa WNW 5.6 km/h 5.6 km/h 62% 0 mm WeatherDisplay:10.37 W/m2 FEW
13:31 14.4 °C 7.2 °C 1024.6 hPa West 5.6 km/h   62% 0 mm WeatherDisplay:10.37 W/m2 FEW
13:36 14.7 °C 7.4 °C 1024.6 hPa WNW 3.7 km/h 3.7 km/h 62% 0 mm WeatherDisplay:10.37 W/m2 FEW
13:41 14.7 °C 7.4 °C 1024.6 hPa WNW 1.9 km/h 1.9 km/h 62% 0 mm WeatherDisplay:10.37 W/m2 FEW
13:46 14.7 °C 7.4 °C 1024.6 hPa WNW 7.4 km/h 7.4 km/h 62% 0 mm WeatherDisplay:10.37 W/m2 FEW
13:51 14.3 °C 7.1 °C 1024.6 hPa WNW 7.4 km/h 7.4 km/h 62% 0 mm WeatherDisplay:10.37 W/m2 FEW
13:56 14.2 °C 7.4 °C 1024.6 hPa West 7.4 km/h   64% 0 mm WeatherDisplay:10.37 W/m2 FEW
14:01 14.1 °C 7.2 °C 1024.6 hPa SSW 3.7 km/h   63% 0 mm WeatherDisplay:10.37 W/m2 FEW
14:06 14 °C 7.3 °C 1024.3 hPa West 1.9 km/h   64% 0 mm WeatherDisplay:10.37 W/m2 FEW
14:11 13.7 °C 7.1 °C 1024.3 hPa WNW 1.9 km/h   64% 0 mm WeatherDisplay:10.37 W/m2 FEW
14:16 13.6 °C 6.9 °C 1024.3 hPa West 1.9 km/h   64% 0 mm WeatherDisplay:10.37 W/m2 FEW
14:18 13.5 °C 6.8 °C 1024.3 hPa West 1.9 km/h   64% 0 mm WeatherDisplay:10.37 W/m2 FEW
14:23 13.4 °C 7.2 °C 1023.9 hPa Calm     66% 0 mm WeatherDisplay:10.37 W/m2 FEW
14:28 13.4 °C 6.8 °C 1023.9 hPa West 1.9 km/h   64% 0 mm WeatherDisplay:10.37 W/m2 FEW
14:33 13.7 °C 6.5 °C 1023.9 hPa West 1.9 km/h   62% 0 mm WeatherDisplay:10.37 W/m2 FEW
14:38 13.9 °C 7.2 °C 1023.9 hPa WSW 1.9 km/h 1.9 km/h 64% 0 mm WeatherDisplay:10.37 W/m2 FEW
14:43 14.1 °C 7.1 °C 1023.6 hPa West 1.9 km/h 1.9 km/h 63% 0 mm WeatherDisplay:10.37 W/m2 FEW
14:48 14.2 °C 7.2 °C 1023.6 hPa WNW 1.9 km/h 1.9 km/h 63% 0 mm WeatherDisplay:10.37 W/m2 FEW
14:53 14.2 °C 7 °C 1023.6 hPa WNW 3.7 km/h 3.7 km/h 62% 0 mm WeatherDisplay:10.37 W/m2 FEW
14:58 14.2 °C 7.3 °C 1023.6 hPa WNW 3.7 km/h 3.7 km/h 63% 0 mm WeatherDisplay:10.37 W/m2 FEW
15:03 14.2 °C 6.8 °C 1023.6 hPa NW 3.7 km/h 3.7 km/h 61% 0 mm WeatherDisplay:10.37 W/m2 FEW
15:09 14.1 °C 7.2 °C 1023.6 hPa WNW 3.7 km/h   63% 0 mm WeatherDisplay:10.37 W/m2 FEW
15:13 14.2 °C 7.2 °C 1023.6 hPa WSW 3.7 km/h 3.7 km/h 63% 0 mm WeatherDisplay:10.37 W/m2 FEW
15:19 14.2 °C 7.2 °C 1023.6 hPa SSE 3.7 km/h   63% 0 mm WeatherDisplay:10.37 W/m2 FEW
15:29 14.1 °C 6.9 °C 1023.6 hPa West 3.7 km/h   62% 0 mm WeatherDisplay:10.37 W/m2 SCT
15:34 14.1 °C 6.9 °C 1023.2 hPa West 1.9 km/h   62% 0 mm WeatherDisplay:10.37 W/m2 SCT
15:39 14.1 °C 7.1 °C 1023.2 hPa West 1.9 km/h   63% 0 mm WeatherDisplay:10.37 W/m2 SCT
15:45 14.1 °C 7.1 °C 1023.2 hPa West 1.9 km/h   63% 0 mm WeatherDisplay:10.37 W/m2 CLR
15:50 14.2 °C 7.4 °C 1023.2 hPa Calm     64% 0 mm WeatherDisplay:10.37 W/m2 SCT
15:55 14.2 °C 7 °C 1023.2 hPa West 1.9 km/h 1.9 km/h 62% 0 mm WeatherDisplay:10.37 W/m2 SCT
16:00 14.1 °C 6.9 °C 1023.2 hPa SE 3.7 km/h 3.7 km/h 62% 0 mm WeatherDisplay:10.37 W/m2 SCT
16:05 14 °C 7.1 °C 1023.2 hPa ESE 3.7 km/h   63% 0 mm WeatherDisplay:10.37 W/m2 SCT
16:15 14 °C 7.5 °C 1023.2 hPa Calm     65% 0 mm WeatherDisplay:10.37 W/m2 SCT
16:21 13.9 °C 7.2 °C 1023.2 hPa Calm     64% 0 mm WeatherDisplay:10.37 W/m2 FEW
16:26 13.8 °C 7.6 °C 1023.2 hPa Calm     66% 0 mm WeatherDisplay:10.37 W/m2 FEW
16:31 13.5 °C 7.5 °C 1023.2 hPa Calm     67% 0 mm WeatherDisplay:10.37 W/m2 FEW
16:36 13.4 °C 7.6 °C 1023.2 hPa Calm     68% 0 mm WeatherDisplay:10.37 W/m2 FEW
16:41 13.2 °C 7.4 °C 1023.2 hPa Calm     68% 0 mm WeatherDisplay:10.37 W/m2 FEW
16:46 13 °C 7.7 °C 1023.2 hPa Calm     70% 0 mm WeatherDisplay:10.37 W/m2 FEW
16:51 12.8 °C 7.3 °C 1023.2 hPa Calm     69% 0 mm WeatherDisplay:10.37 W/m2 FEW
16:56 12.6 °C 7.3 °C 1023.2 hPa Calm     70% 0 mm WeatherDisplay:10.37 W/m2 FEW
17:01 12.5 °C 7.4 °C 1023.2 hPa Calm     71% 0 mm WeatherDisplay:10.37 W/m2 FEW
17:06 12.3 °C 7.2 °C 1023.2 hPa Calm     71% 0 mm WeatherDisplay:10.37 W/m2 FEW
17:11 12.2 °C 7.3 °C 1023.2 hPa Calm     72% 0 mm WeatherDisplay:10.37 W/m2 FEW
17:17 12.1 °C 7.2 °C 1022.9 hPa Calm     72% 0 mm WeatherDisplay:10.37 W/m2 FEW
17:20 4.7 °C 3.5 °C 1023.9 hPa Calm     92% 0 mm WeatherDisplay:10.37 W/m2
17:22 11.9 °C 7 °C 1022.9 hPa Calm     72% 0 mm WeatherDisplay:10.37 W/m2 FEW
17:27 11.8 °C 7.1 °C 1023.2 hPa Calm     73% 0 mm WeatherDisplay:10.37 W/m2 FEW
17:32 11.6 °C 7.1 °C 1023.2 hPa Calm     74% 0 mm WeatherDisplay:10.37 W/m2 FEW
17:37 11.4 °C 6.9 °C 1023.2 hPa Calm     74% 0 mm WeatherDisplay:10.37 W/m2 FEW
17:42 11.3 °C 7.2 °C 1023.2 hPa Calm     76% 0 mm WeatherDisplay:10.37 W/m2 FEW
17:47 11.1 °C 7.1 °C 1023.2 hPa Calm     76% 0 mm WeatherDisplay:10.37 W/m2 FEW
17:52 10.9 °C 7 °C 1023.2 hPa Calm     77% 0 mm WeatherDisplay:10.37 W/m2 FEW
17:57 10.7 °C 6.8 °C 1023.2 hPa Calm     77% 0 mm WeatherDisplay:10.37 W/m2 FEW
18:02 10.5 °C 6.8 °C 1023.2 hPa Calm     78% 0 mm WeatherDisplay:10.37 W/m2 FEW
18:07 10.3 °C 6.8 °C 1023.2 hPa Calm     79% 0 mm WeatherDisplay:10.37 W/m2 FEW
18:13 10.1 °C 6.6 °C 1023.2 hPa Calm     79% 0 mm WeatherDisplay:10.37 W/m2 FEW
18:18 9.9 °C 6.6 °C 1023.2 hPa Calm     80% 0 mm WeatherDisplay:10.37 W/m2 FEW
18:23 9.7 °C 6.6 °C 1023.2 hPa Calm     81% 0 mm WeatherDisplay:10.37 W/m2 FEW
18:28 9.5 °C 6.4 °C 1023.2 hPa Calm     81% 0 mm WeatherDisplay:10.37 W/m2 FEW
18:33 9.4 °C 6.4 °C 1023.2 hPa Calm     82% 0 mm WeatherDisplay:10.37 W/m2 FEW
18:38 9.3 °C 6.6 °C 1023.2 hPa Calm     83% 0 mm WeatherDisplay:10.37 W/m2 FEW
18:43 9.2 °C 6.4 °C 1023.2 hPa Calm     83% 0 mm WeatherDisplay:10.37 W/m2 FEW
18:48 9 °C 6.4 °C 1023.2 hPa Calm     84% 0 mm WeatherDisplay:10.37 W/m2 FEW
18:53 8.9 °C 6.6 °C 1023.2 hPa Calm     85% 0 mm WeatherDisplay:10.37 W/m2 FEW
18:58 8.9 °C 6.6 °C 1023.2 hPa Calm     85% 0 mm WeatherDisplay:10.37 W/m2 FEW
19:03 8.8 °C 6.4 °C 1023.2 hPa Calm     85% 0 mm WeatherDisplay:10.37 W/m2 FEW
19:08 8.7 °C 6.3 °C 1023.6 hPa Calm     85% 0 mm WeatherDisplay:10.37 W/m2 FEW
19:13 8.6 °C 6.3 °C 1023.6 hPa Calm     86% 0 mm WeatherDisplay:10.37 W/m2 FEW
19:19 8.4 °C 6.2 °C 1023.6 hPa Calm     86% 0 mm WeatherDisplay:10.37 W/m2 FEW
19:24 8.3 °C 6.3 °C 1023.6 hPa Calm     87% 0 mm WeatherDisplay:10.37 W/m2 FEW
19:29 8.3 °C 6.3 °C 1023.6 hPa Calm     87% 0 mm WeatherDisplay:10.37 W/m2 FEW
19:34 8.3 °C 6.2 °C 1023.6 hPa Calm     87% 0 mm WeatherDisplay:10.37 W/m2 FEW
19:39 8.2 °C 6.1 °C 1023.6 hPa Calm     87% 0 mm WeatherDisplay:10.37 W/m2 FEW
19:44 8.1 °C 6.1 °C 1023.6 hPa Calm     87% 0 mm WeatherDisplay:10.37 W/m2 FEW
19:49 8.1 °C 6 °C 1023.6 hPa Calm     87% 0 mm WeatherDisplay:10.37 W/m2 FEW
19:54 8.1 °C 6 °C 1023.6 hPa Calm     87% 0 mm WeatherDisplay:10.37 W/m2 FEW
19:59 7.9 °C 5.9 °C 1023.6 hPa Calm     87% 0 mm WeatherDisplay:10.37 W/m2 FEW
20:04 7.9 °C 6.1 °C 1023.6 hPa Calm     88% 0 mm WeatherDisplay:10.37 W/m2 FEW
20:09 7.9 °C 6.1 °C 1023.6 hPa Calm     88% 0 mm WeatherDisplay:10.37 W/m2 FEW
20:14 7.8 °C 5.9 °C 1023.9 hPa Calm     88% 0 mm WeatherDisplay:10.37 W/m2 FEW
20:19 7.8 °C 5.9 °C 1023.9 hPa Calm     88% 0 mm WeatherDisplay:10.37 W/m2 FEW
20:25 7.8 °C 5.9 °C 1023.9 hPa Calm     88% 0 mm WeatherDisplay:10.37 W/m2 FEW
20:30 7.7 °C 5.8 °C 1023.9 hPa Calm     88% 0 mm WeatherDisplay:10.37 W/m2 FEW
20:35 7.6 °C 5.7 °C 1023.9 hPa Calm     88% 0 mm WeatherDisplay:10.37 W/m2 FEW
20:40 7.5 °C 5.7 °C 1023.9 hPa Calm     88% 0 mm WeatherDisplay:10.37 W/m2 FEW
20:45 7.4 °C 5.6 °C 1023.9 hPa Calm     88% 0 mm WeatherDisplay:10.37 W/m2 FEW
20:50 7.3 °C 5.4 °C 1023.9 hPa Calm     88% 0 mm WeatherDisplay:10.37 W/m2 FEW
20:55 7.3 °C 5.6 °C 1023.9 hPa Calm     89% 0 mm WeatherDisplay:10.37 W/m2 FEW
21:00 7.2 °C 5.6 °C 1023.9 hPa Calm     89% 0 mm WeatherDisplay:10.37 W/m2 FEW
21:05 7.2 °C 5.6 °C 1023.9 hPa Calm     89% 0 mm WeatherDisplay:10.37 W/m2 CLR
21:10 7.3 °C 5.6 °C 1023.9 hPa Calm     89% 0 mm WeatherDisplay:10.37 W/m2 CLR
21:15 7.3 °C 5.6 °C 1023.9 hPa Calm     89% 0 mm WeatherDisplay:10.37 W/m2 CLR
21:20 7.2 °C 5.6 °C 1023.9 hPa Calm     89% 0 mm WeatherDisplay:10.37 W/m2 CLR
21:26 7.2 °C 5.6 °C 1023.9 hPa Calm     89% 0 mm WeatherDisplay:10.37 W/m2 CLR
21:31 7.2 °C 5.5 °C 1024.3 hPa Calm     89% 0 mm WeatherDisplay:10.37 W/m2 CLR
21:36 7.1 °C 5.4 °C 1024.3 hPa Calm     89% 0 mm WeatherDisplay:10.37 W/m2 CLR
21:41 7.1 °C 5.4 °C 1024.3 hPa Calm     89% 0 mm WeatherDisplay:10.37 W/m2 CLR
21:46 7.1 °C 5.4 °C 1024.3 hPa Calm     89% 0 mm WeatherDisplay:10.37 W/m2 CLR
21:51 6.9 °C 5.3 °C 1024.6 hPa Calm     89% 0 mm WeatherDisplay:10.37 W/m2 CLR
21:56 6.9 °C 5.3 °C 1024.6 hPa Calm     89% 0 mm WeatherDisplay:10.37 W/m2 CLR
22:01 6.8 °C 5.2 °C 1024.6 hPa Calm     89% 0 mm WeatherDisplay:10.37 W/m2 CLR
22:06 6.7 °C 5.1 °C 1024.6 hPa Calm     89% 0 mm WeatherDisplay:10.37 W/m2 CLR
22:13 6.6 °C 4.9 °C 1024.6 hPa Calm     89% 0 mm WeatherDisplay:10.37 W/m2 CLR
22:18 6.6 °C 5.1 °C 1024.3 hPa Calm     90% 0 mm WeatherDisplay:10.37 W/m2 CLR
22:23 6.5 °C 5 °C 1024.3 hPa Calm     90% 0 mm WeatherDisplay:10.37 W/m2 CLR
22:24 6.5 °C 5 °C 1024.3 hPa Calm     90% 0 mm WeatherDisplay:10.37 W/m2 CLR
22:25 6.5 °C 5 °C 1024.3 hPa Calm     90% 0 mm WeatherDisplay:10.37 W/m2 CLR
22:30 6.4 °C 4.9 °C 1024.3 hPa Calm     90% 0 mm WeatherDisplay:10.37 W/m2 CLR
22:35 6.3 °C 4.8 °C 1024.3 hPa Calm     90% 0 mm WeatherDisplay:10.37 W/m2 CLR
22:40 6.3 °C 4.8 °C 1024.3 hPa Calm     90% 0 mm WeatherDisplay:10.37 W/m2 CLR
22:41 6.3 °C 4.8 °C 1024.3 hPa Calm     90% 0 mm WeatherDisplay:10.37 W/m2 CLR
22:46 6.3 °C 4.8 °C 1024.3 hPa Calm     90% 0 mm WeatherDisplay:10.37 W/m2 CLR
22:51 6.3 °C 4.9 °C 1024.3 hPa Calm     91% 0 mm WeatherDisplay:10.37 W/m2 CLR
22:56 6.2 °C 4.7 °C 1024.3 hPa Calm     90% 0 mm WeatherDisplay:10.37 W/m2 CLR
23:02 6.3 °C 4.9 °C 1024.3 hPa Calm     91% 0 mm WeatherDisplay:10.37 W/m2 CLR
23:12 6.2 °C 4.8 °C 1024.3 hPa Calm     91% 0 mm WeatherDisplay:10.37 W/m2 CLR
23:17 6.1 °C 4.8 °C 1024.3 hPa Calm     91% 0 mm WeatherDisplay:10.37 W/m2 CLR
23:22 6.1 °C 4.8 °C 1024.3 hPa Calm     91% 0 mm WeatherDisplay:10.37 W/m2 CLR
23:27 6.1 °C 4.8 °C 1024.3 hPa Calm     91% 0 mm WeatherDisplay:10.37 W/m2 CLR
23:32 6.1 °C 4.8 °C 1024.3 hPa Calm     91% 0 mm WeatherDisplay:10.37 W/m2 CLR
23:37 6.1 °C 4.8 °C 1024.3 hPa Calm     91% 0 mm WeatherDisplay:10.37 W/m2 CLR
23:42 6.1 °C 4.8 °C 1024.3 hPa Calm     91% 0 mm WeatherDisplay:10.37 W/m2 CLR
23:47 6.1 °C 4.8 °C 1024.3 hPa Calm     91% 0 mm WeatherDisplay:10.37 W/m2 CLR
23:52 6.1 °C 4.7 °C 1024.3 hPa Calm     91% 0 mm WeatherDisplay:10.37 W/m2 CLR
23:57 6 °C 4.7 °C 1024.3 hPa Calm     91% 0 mm WeatherDisplay:10.37 W/m2 CLR
Piedmont Bend
Compliments of Weather Underground - 4 mb